sensor_id;sensor_type;location;lat;lon;timestamp;P1;P2;P0
57563;PMS7003;43400;45.926;6.724;2023-02-01T00:01:29;36.00;32.75;25.00
57563;PMS7003;43400;45.926;6.724;2023-02-01T00:04:04;32.75;31.00;19.00
57563;PMS7003;43400;45.926;6.724;2023-02-01T00:06:43;35.00;34.33;19.00
57563;PMS7003;43400;45.926;6.724;2023-02-01T00:09:15;28.00;24.50;17.50
57563;PMS7003;43400;45.926;6.724;2023-02-01T00:11:47;21.80;21.00;16.00
57563;PMS7003;43400;45.926;6.724;2023-02-01T00:14:22;21.00;21.00;15.80
57563;PMS7003;43400;45.926;6.724;2023-02-01T00:16:57;29.75;27.50;18.00
57563;PMS7003;43400;45.926;6.724;2023-02-01T00:19:30;22.75;22.25;17.75
57563;PMS7003;43400;45.926;6.724;2023-02-01T00:22:06;26.50;26.00;17.00
57563;PMS7003;43400;45.926;6.724;2023-02-01T00:24:45;31.75;27.75;18.00
57563;PMS7003;43400;45.926;6.724;2023-02-01T00:27:41;33.60;30.60;21.00
57563;PMS7003;43400;45.926;6.724;2023-02-01T00:30:24;27.75;27.50;19.50
57563;PMS7003;43400;45.926;6.724;2023-02-01T00:32:59;31.00;31.00;17.75
57563;PMS7003;43400;45.926;6.724;2023-02-01T00:35:37;29.60;28.60;20.60
57563;PMS7003;43400;45.926;6.724;2023-02-01T00:38:18;37.50;36.50;24.25
57563;PMS7003;43400;45.926;6.724;2023-02-01T00:41:03;29.50;24.25;18.00
57563;PMS7003;43400;45.926;6.724;2023-02-01T00:43:46;30.60;28.00;19.00
57563;PMS7003;43400;45.926;6.724;2023-02-01T00:46:20;34.50;28.00;21.00
57563;PMS7003;43400;45.926;6.724;2023-02-01T00:48:56;32.50;30.25;18.50
57563;PMS7003;43400;45.926;6.724;2023-02-01T00:51:35;27.60;27.20;20.00
57563;PMS7003;43400;45.926;6.724;2023-02-01T00:54:14;42.80;39.40;26.20
57563;PMS7003;43400;45.926;6.724;2023-02-01T00:56:49;56.75;50.00;31.75
57563;PMS7003;43400;45.926;6.724;2023-02-01T00:59:25;44.00;42.25;28.00
57563;PMS7003;43400;45.926;6.724;2023-02-01T01:01:57;45.67;42.33;27.33
57563;PMS7003;43400;45.926;6.724;2023-02-01T01:04:38;44.75;38.75;26.50
57563;PMS7003;43400;45.926;6.724;2023-02-01T01:07:12;54.00;44.40;28.80
57563;PMS7003;43400;45.926;6.724;2023-02-01T01:09:47;54.75;47.50;30.75
57563;PMS7003;43400;45.926;6.724;2023-02-01T01:12:28;50.25;46.25;30.00
57563;PMS7003;43400;45.926;6.724;2023-02-01T01:15:05;54.40;47.00;31.00
57563;PMS7003;43400;45.926;6.724;2023-02-01T01:17:41;60.00;48.50;31.00
57563;PMS7003;43400;45.926;6.724;2023-02-01T01:20:20;61.25;49.25;31.75
57563;PMS7003;43400;45.926;6.724;2023-02-01T01:22:58;62.75;51.00;32.00
57563;PMS7003;43400;45.926;6.724;2023-02-01T01:25:31;54.50;49.25;31.00
57563;PMS7003;43400;45.926;6.724;2023-02-01T01:28:03;63.00;49.80;31.20
57563;PMS7003;43400;45.926;6.724;2023-02-01T01:30:35;49.25;45.25;30.00
57563;PMS7003;43400;45.926;6.724;2023-02-01T01:33:24;57.20;50.20;34.00
57563;PMS7003;43400;45.926;6.724;2023-02-01T01:36:00;62.50;51.75;33.00
57563;PMS7003;43400;45.926;6.724;2023-02-01T01:38:32;65.40;51.00;33.20
57563;PMS7003;43400;45.926;6.724;2023-02-01T01:41:18;57.00;50.00;34.00
57563;PMS7003;43400;45.926;6.724;2023-02-01T01:47:25;66.50;54.50;34.00
57563;PMS7003;43400;45.926;6.724;2023-02-01T01:50:03;74.50;58.00;34.75
57563;PMS7003;43400;45.926;6.724;2023-02-01T01:53:08;64.00;53.00;36.60
57563;PMS7003;43400;45.926;6.724;2023-02-01T01:55:48;66.60;56.20;37.80
57563;PMS7003;43400;45.926;6.724;2023-02-01T01:58:28;71.50;59.50;38.75
57563;PMS7003;43400;45.926;6.724;2023-02-01T02:01:07;66.00;55.00;35.00
57563;PMS7003;43400;45.926;6.724;2023-02-01T02:03:40;65.00;55.25;34.00
57563;PMS7003;43400;45.926;6.724;2023-02-01T02:06:33;74.20;59.20;38.20
57563;PMS7003;43400;45.926;6.724;2023-02-01T02:09:09;67.00;56.33;37.00
57563;PMS7003;43400;45.926;6.724;2023-02-01T02:11:41;65.20;54.00;33.80
57563;PMS7003;43400;45.926;6.724;2023-02-01T02:14:14;60.50;49.75;32.00
57563;PMS7003;43400;45.926;6.724;2023-02-01T02:41:33;41.60;40.00;27.00
57563;PMS7003;43400;45.926;6.724;2023-02-01T02:50:51;47.75;43.25;27.00
57563;PMS7003;43400;45.926;6.724;2023-02-01T02:56:24;32.00;32.00;23.00
57563;PMS7003;43400;45.926;6.724;2023-02-01T02:59:00;35.75;34.50;20.50
57563;PMS7003;43400;45.926;6.724;2023-02-01T03:01:35;31.80;31.40;22.60
57563;PMS7003;43400;45.926;6.724;2023-02-01T03:04:09;34.50;32.75;23.00
57563;PMS7003;43400;45.926;6.724;2023-02-01T03:06:42;35.67;35.00;23.00
57563;PMS7003;43400;45.926;6.724;2023-02-01T03:09:20;29.00;27.00;21.60
57563;PMS7003;43400;45.926;6.724;2023-02-01T03:12:07;39.00;32.50;23.50
57563;PMS7003;43400;45.926;6.724;2023-02-01T03:15:08;32.60;30.40;23.00
57563;PMS7003;43400;45.926;6.724;2023-02-01T03:17:42;73.20;61.60;40.60
57563;PMS7003;43400;45.926;6.724;2023-02-01T03:20:20;49.75;44.75;31.50
57563;PMS7003;43400;45.926;6.724;2023-02-01T03:23:24;56.00;49.50;32.00
57563;PMS7003;43400;45.926;6.724;2023-02-01T03:26:01;46.20;42.80;29.00
57563;PMS7003;43400;45.926;6.724;2023-02-01T03:28:43;42.50;39.50;25.25
57563;PMS7003;43400;45.926;6.724;2023-02-01T03:31:26;35.50;32.75;22.00
57563;PMS7003;43400;45.926;6.724;2023-02-01T03:34:06;32.00;31.75;21.50
57563;PMS7003;43400;45.926;6.724;2023-02-01T03:36:50;25.20;24.60;17.00
57563;PMS7003;43400;45.926;6.724;2023-02-01T03:40:03;36.75;31.75;22.25
57563;PMS7003;43400;45.926;6.724;2023-02-01T03:42:46;25.00;23.00;17.80
57563;PMS7003;43400;45.926;6.724;2023-02-01T03:45:32;25.75;23.50;17.00
57563;PMS7003;43400;45.926;6.724;2023-02-01T03:48:09;26.50;25.00;17.00
57563;PMS7003;43400;45.926;6.724;2023-02-01T03:50:49;35.00;34.00;23.50
57563;PMS7003;43400;45.926;6.724;2023-02-01T03:53:29;25.75;25.75;18.75
57563;PMS7003;43400;45.926;6.724;2023-02-01T03:56:05;26.00;24.80;19.60
57563;PMS7003;43400;45.926;6.724;2023-02-01T03:58:41;33.25;32.00;22.00
57563;PMS7003;43400;45.926;6.724;2023-02-01T04:01:16;36.75;35.00;22.50
57563;PMS7003;43400;45.926;6.724;2023-02-01T04:03:54;36.50;35.00;26.00
57563;PMS7003;43400;45.926;6.724;2023-02-01T04:06:35;36.25;35.00;24.25
57563;PMS7003;43400;45.926;6.724;2023-02-01T04:09:13;26.00;25.00;18.50
57563;PMS7003;43400;45.926;6.724;2023-02-01T04:11:45;34.80;34.40;25.40
57563;PMS7003;43400;45.926;6.724;2023-02-01T04:14:19;31.00;31.00;23.00
57563;PMS7003;43400;45.926;6.724;2023-02-01T04:16:54;39.40;37.60;28.60
57563;PMS7003;43400;45.926;6.724;2023-02-01T04:19:35;41.25;38.00;26.50
57563;PMS7003;43400;45.926;6.724;2023-02-01T04:22:09;22.75;22.00;14.00
57563;PMS7003;43400;45.926;6.724;2023-02-01T04:24:41;22.00;20.00;14.00
57563;PMS7003;43400;45.926;6.724;2023-02-01T04:27:13;17.00;16.50;13.50
57563;PMS7003;43400;45.926;6.724;2023-02-01T04:29:50;17.50;17.50;11.00
57563;PMS7003;43400;45.926;6.724;2023-02-01T04:32:22;13.60;13.00;10.00
57563;PMS7003;43400;45.926;6.724;2023-02-01T04:34:57;26.00;21.50;12.00
57563;PMS7003;43400;45.926;6.724;2023-02-01T04:37:29;15.00;15.00;11.50
57563;PMS7003;43400;45.926;6.724;2023-02-01T04:40:06;17.00;16.33;11.00
57563;PMS7003;43400;45.926;6.724;2023-02-01T04:42:44;28.50;28.50;19.25
57563;PMS7003;43400;45.926;6.724;2023-02-01T04:45:16;25.20;20.00;14.00
57563;PMS7003;43400;45.926;6.724;2023-02-01T04:48:13;22.40;20.00;16.00
57563;PMS7003;43400;45.926;6.724;2023-02-01T04:50:57;19.00;17.40;13.00
57563;PMS7003;43400;45.926;6.724;2023-02-01T04:53:35;22.25;22.25;14.00
57563;PMS7003;43400;45.926;6.724;2023-02-01T04:56:08;22.00;20.00;15.60
57563;PMS7003;43400;45.926;6.724;2023-02-01T04:58:47;27.00;25.00;15.50
57563;PMS7003;43400;45.926;6.724;2023-02-01T05:01:59;20.00;19.50;14.00
57563;PMS7003;43400;45.926;6.724;2023-02-01T05:04:37;17.67;17.67;14.00
57563;PMS7003;43400;45.926;6.724;2023-02-01T05:07:11;22.40;19.40;13.60
57563;PMS7003;43400;45.926;6.724;2023-02-01T05:09:46;23.80;22.20;15.80
57563;PMS7003;43400;45.926;6.724;2023-02-01T05:12:26;23.20;21.00;15.80
57563;PMS7003;43400;45.926;6.724;2023-02-01T05:15:07;16.80;14.60;11.80
57563;PMS7003;43400;45.926;6.724;2023-02-01T05:17:42;18.00;15.25;11.50
57563;PMS7003;43400;45.926;6.724;2023-02-01T05:20:14;16.00;16.00;12.00
57563;PMS7003;43400;45.926;6.724;2023-02-01T05:22:47;20.50;18.50;14.00
57563;PMS7003;43400;45.926;6.724;2023-02-01T05:25:28;27.40;26.60;16.00
57563;PMS7003;43400;45.926;6.724;2023-02-01T05:28:03;19.40;19.00;13.00
57563;PMS7003;43400;45.926;6.724;2023-02-01T05:30:38;21.40;21.40;16.00
57563;PMS7003;43400;45.926;6.724;2023-02-01T05:33:13;22.00;22.00;16.00
57563;PMS7003;43400;45.926;6.724;2023-02-01T05:35:45;15.00;13.50;11.50
57563;PMS7003;43400;45.926;6.724;2023-02-01T05:38:20;12.80;12.00;9.40
57563;PMS7003;43400;45.926;6.724;2023-02-01T05:40:52;16.00;16.00;10.00
57563;PMS7003;43400;45.926;6.724;2023-02-01T05:43:30;10.00;9.00;7.00
57563;PMS7003;43400;45.926;6.724;2023-02-01T05:46:02;24.00;22.00;15.00
57563;PMS7003;43400;45.926;6.724;2023-02-01T05:48:34;16.40;15.60;11.20
57563;PMS7003;43400;45.926;6.724;2023-02-01T05:51:13;14.20;14.20;11.60
57563;PMS7003;43400;45.926;6.724;2023-02-01T05:53:58;18.00;15.00;10.00
57563;PMS7003;43400;45.926;6.724;2023-02-01T05:56:30;14.33;12.67;10.00
57563;PMS7003;43400;45.926;6.724;2023-02-01T05:59:05;16.40;14.00;10.00
57563;PMS7003;43400;45.926;6.724;2023-02-01T06:01:37;13.00;13.00;11.50
57563;PMS7003;43400;45.926;6.724;2023-02-01T06:04:10;13.00;12.80;9.20
57563;PMS7003;43400;45.926;6.724;2023-02-01T06:06:45;15.25;13.75;9.75
57563;PMS7003;43400;45.926;6.724;2023-02-01T06:09:27;15.00;13.00;11.50
57563;PMS7003;43400;45.926;6.724;2023-02-01T06:12:02;16.00;15.00;11.20
57563;PMS7003;43400;45.926;6.724;2023-02-01T06:14:52;15.60;15.00;10.00
57563;PMS7003;43400;45.926;6.724;2023-02-01T06:18:06;11.00;11.00;9.00
57563;PMS7003;43400;45.926;6.724;2023-02-01T06:20:31;13.80;12.40;9.00
57563;PMS7003;43400;45.926;6.724;2023-02-01T06:23:07;15.00;13.00;10.00
57563;PMS7003;43400;45.926;6.724;2023-02-01T06:26:02;16.00;15.00;12.00
57563;PMS7003;43400;45.926;6.724;2023-02-01T06:28:45;14.75;14.50;10.00
57563;PMS7003;43400;45.926;6.724;2023-02-01T06:31:17;16.00;16.00;12.00
57563;PMS7003;43400;45.926;6.724;2023-02-01T06:33:49;12.80;12.80;9.20
57563;PMS7003;43400;45.926;6.724;2023-02-01T06:36:22;13.00;13.00;10.00
57563;PMS7003;43400;45.926;6.724;2023-02-01T06:38:55;19.00;16.00;10.00
57563;PMS7003;43400;45.926;6.724;2023-02-01T06:41:29;20.50;18.25;14.50
57563;PMS7003;43400;45.926;6.724;2023-02-01T06:44:00;18.50;18.00;13.50
57563;PMS7003;43400;45.926;6.724;2023-02-01T06:46:35;25.80;24.80;18.40
57563;PMS7003;43400;45.926;6.724;2023-02-01T06:49:07;20.75;19.75;14.75
57563;PMS7003;43400;45.926;6.724;2023-02-01T06:51:39;25.80;24.00;16.00
57563;PMS7003;43400;45.926;6.724;2023-02-01T06:54:11;24.00;22.50;15.75
57563;PMS7003;43400;45.926;6.724;2023-02-01T06:56:43;32.50;31.00;22.00
57563;PMS7003;43400;45.926;6.724;2023-02-01T06:59:14;28.00;27.00;18.00
57563;PMS7003;43400;45.926;6.724;2023-02-01T07:01:46;20.40;18.00;13.00
57563;PMS7003;43400;45.926;6.724;2023-02-01T07:04:17;20.60;16.80;10.00
57563;PMS7003;43400;45.926;6.724;2023-02-01T07:06:49;24.80;24.00;18.00
57563;PMS7003;43400;45.926;6.724;2023-02-01T07:09:21;49.60;46.80;29.20
57563;PMS7003;43400;45.926;6.724;2023-02-01T07:11:53;49.00;45.75;31.00
57563;PMS7003;43400;45.926;6.724;2023-02-01T07:14:24;58.50;52.00;34.00
57563;PMS7003;43400;45.926;6.724;2023-02-01T07:16:56;69.40;58.00;36.00
57563;PMS7003;43400;45.926;6.724;2023-02-01T07:19:28;70.00;58.50;39.50
57563;PMS7003;43400;45.926;6.724;2023-02-01T07:21:59;67.00;54.80;36.40
57563;PMS7003;43400;45.926;6.724;2023-02-01T07:24:31;53.75;49.50;34.00
57563;PMS7003;43400;45.926;6.724;2023-02-01T07:27:05;71.50;57.50;34.00
57563;PMS7003;43400;45.926;6.724;2023-02-01T07:29:36;61.00;52.40;34.00
57563;PMS7003;43400;45.926;6.724;2023-02-01T07:32:08;61.50;53.50;35.50
57563;PMS7003;43400;45.926;6.724;2023-02-01T07:34:40;61.00;52.50;34.00
57563;PMS7003;43400;45.926;6.724;2023-02-01T07:37:11;62.25;52.00;34.00
57563;PMS7003;43400;45.926;6.724;2023-02-01T07:39:43;55.00;47.20;33.00
57563;PMS7003;43400;45.926;6.724;2023-02-01T07:42:15;63.75;54.25;37.00
57563;PMS7003;43400;45.926;6.724;2023-02-01T07:44:46;69.75;57.00;36.00
57563;PMS7003;43400;45.926;6.724;2023-02-01T07:47:18;62.50;52.00;33.00
57563;PMS7003;43400;45.926;6.724;2023-02-01T07:49:50;64.50;55.00;34.00
57563;PMS7003;43400;45.926;6.724;2023-02-01T07:52:21;52.00;47.50;33.00
57563;PMS7003;43400;45.926;6.724;2023-02-01T07:54:53;48.00;42.40;30.00
57563;PMS7003;43400;45.926;6.724;2023-02-01T07:57:25;42.00;41.60;27.20
57563;PMS7003;43400;45.926;6.724;2023-02-01T07:59:57;39.25;37.50;27.00
57563;PMS7003;43400;45.926;6.724;2023-02-01T08:02:28;30.75;28.00;22.00
57563;PMS7003;43400;45.926;6.724;2023-02-01T08:05:00;24.25;22.25;16.00
57563;PMS7003;43400;45.926;6.724;2023-02-01T08:07:32;27.00;25.00;18.00
57563;PMS7003;43400;45.926;6.724;2023-02-01T08:10:03;25.00;24.00;13.00
57563;PMS7003;43400;45.926;6.724;2023-02-01T08:12:36;23.50;23.50;16.50
57563;PMS7003;43400;45.926;6.724;2023-02-01T08:15:08;28.50;25.50;21.00
57563;PMS7003;43400;45.926;6.724;2023-02-01T08:17:40;27.50;26.00;18.00
57563;PMS7003;43400;45.926;6.724;2023-02-01T08:20:21;27.00;21.50;17.50
57563;PMS7003;43400;45.926;6.724;2023-02-01T08:22:54;22.00;21.20;15.20
57563;PMS7003;43400;45.926;6.724;2023-02-01T08:25:26;19.50;19.50;15.25
57563;PMS7003;43400;45.926;6.724;2023-02-01T08:27:57;21.50;18.00;14.50
57563;PMS7003;43400;45.926;6.724;2023-02-01T08:30:32;20.00;20.00;13.00
57563;PMS7003;43400;45.926;6.724;2023-02-01T08:33:05;18.40;18.40;14.60
57563;PMS7003;43400;45.926;6.724;2023-02-01T08:35:37;21.67;21.67;15.33
57563;PMS7003;43400;45.926;6.724;2023-02-01T08:38:09;18.60;18.00;13.00
57563;PMS7003;43400;45.926;6.724;2023-02-01T08:40:41;20.20;19.40;14.20
57563;PMS7003;43400;45.926;6.724;2023-02-01T08:43:13;21.00;18.00;13.25
57563;PMS7003;43400;45.926;6.724;2023-02-01T08:45:45;19.20;18.20;13.80
57563;PMS7003;43400;45.926;6.724;2023-02-01T08:48:16;17.00;16.00;14.00
57563;PMS7003;43400;45.926;6.724;2023-02-01T08:50:48;17.00;16.50;13.25
57563;PMS7003;43400;45.926;6.724;2023-02-01T08:53:20;18.75;17.50;11.00
57563;PMS7003;43400;45.926;6.724;2023-02-01T08:55:52;19.00;17.80;11.00
57563;PMS7003;43400;45.926;6.724;2023-02-01T08:58:23;19.00;17.50;13.00
57563;PMS7003;43400;45.926;6.724;2023-02-01T09:00:55;17.00;16.40;12.20
57563;PMS7003;43400;45.926;6.724;2023-02-01T09:03:27;19.20;19.00;13.00
57563;PMS7003;43400;45.926;6.724;2023-02-01T09:05:59;17.00;16.00;11.00
57563;PMS7003;43400;45.926;6.724;2023-02-01T09:08:32;17.00;15.75;12.00
57563;PMS7003;43400;45.926;6.724;2023-02-01T09:11:06;18.80;18.60;13.40
57563;PMS7003;43400;45.926;6.724;2023-02-01T09:13:41;19.00;19.00;16.00
57563;PMS7003;43400;45.926;6.724;2023-02-01T09:16:13;22.25;19.00;13.75
57563;PMS7003;43400;45.926;6.724;2023-02-01T09:18:45;22.40;20.80;16.80
57563;PMS7003;43400;45.926;6.724;2023-02-01T09:21:17;23.25;20.50;14.50
57563;PMS7003;43400;45.926;6.724;2023-02-01T09:23:50;22.40;22.20;17.00
57563;PMS7003;43400;45.926;6.724;2023-02-01T09:26:22;29.75;28.50;19.00
57563;PMS7003;43400;45.926;6.724;2023-02-01T09:28:53;26.50;25.00;18.00
57563;PMS7003;43400;45.926;6.724;2023-02-01T09:31:25;27.75;24.50;15.50
57563;PMS7003;43400;45.926;6.724;2023-02-01T09:33:57;23.00;23.00;16.00
57563;PMS7003;43400;45.926;6.724;2023-02-01T09:36:29;26.50;26.50;19.00
57563;PMS7003;43400;45.926;6.724;2023-02-01T09:39:01;22.75;22.00;16.75
57563;PMS7003;43400;45.926;6.724;2023-02-01T09:41:55;24.50;23.50;18.25
57563;PMS7003;43400;45.926;6.724;2023-02-01T09:45:10;29.25;26.00;19.75
57563;PMS7003;43400;45.926;6.724;2023-02-01T09:47:57;28.50;28.25;21.50
57563;PMS7003;43400;45.926;6.724;2023-02-01T09:50:35;33.67;29.33;22.00
57563;PMS7003;43400;45.926;6.724;2023-02-01T09:55:49;32.75;31.50;22.25
57563;PMS7003;43400;45.926;6.724;2023-02-01T09:58:29;33.00;27.67;20.00
57563;PMS7003;43400;45.926;6.724;2023-02-01T10:01:04;34.25;28.25;19.75
57563;PMS7003;43400;45.926;6.724;2023-02-01T10:03:46;33.50;27.50;20.00
57563;PMS7003;43400;45.926;6.724;2023-02-01T10:06:21;26.00;24.00;17.00
57563;PMS7003;43400;45.926;6.724;2023-02-01T10:11:39;25.50;24.75;15.50
57563;PMS7003;43400;45.926;6.724;2023-02-01T10:26:22;22.75;22.00;15.00
57563;PMS7003;43400;45.926;6.724;2023-02-01T10:28:57;16.00;16.00;11.50
57563;PMS7003;43400;45.926;6.724;2023-02-01T10:31:33;20.20;17.80;15.20
57563;PMS7003;43400;45.926;6.724;2023-02-01T10:34:27;18.40;17.60;14.20
57563;PMS7003;43400;45.926;6.724;2023-02-01T10:40:11;17.20;16.80;12.20
57563;PMS7003;43400;45.926;6.724;2023-02-01T10:42:53;15.00;14.00;10.00
57563;PMS7003;43400;45.926;6.724;2023-02-01T10:45:32;18.80;15.60;11.80
57563;PMS7003;43400;45.926;6.724;2023-02-01T10:48:05;21.00;20.75;15.50
57563;PMS7003;43400;45.926;6.724;2023-02-01T10:50:57;17.60;16.80;14.20
57563;PMS7003;43400;45.926;6.724;2023-02-01T10:53:42;12.60;12.00;10.60
57563;PMS7003;43400;45.926;6.724;2023-02-01T10:56:34;16.60;16.60;12.20
57563;PMS7003;43400;45.926;6.724;2023-02-01T10:59:14;15.00;14.25;11.00
57563;PMS7003;43400;45.926;6.724;2023-02-01T11:01:59;13.00;11.00;9.00
57563;PMS7003;43400;45.926;6.724;2023-02-01T11:04:35;13.75;13.75;11.00
57563;PMS7003;43400;45.926;6.724;2023-02-01T11:07:13;12.20;12.20;10.00
57563;PMS7003;43400;45.926;6.724;2023-02-01T11:09:54;14.00;14.00;12.00
57563;PMS7003;43400;45.926;6.724;2023-02-01T11:20:14;8.00;8.00;7.00
57563;PMS7003;43400;45.926;6.724;2023-02-01T11:23:51;11.00;11.00;8.00
57563;PMS7003;43400;45.926;6.724;2023-02-01T11:26:39;8.80;7.60;6.40
57563;PMS7003;43400;45.926;6.724;2023-02-01T11:29:13;11.40;11.40;8.40
57563;PMS7003;43400;45.926;6.724;2023-02-01T11:31:48;10.20;9.40;8.20
57563;PMS7003;43400;45.926;6.724;2023-02-01T11:34:21;10.75;10.75;8.50
57563;PMS7003;43400;45.926;6.724;2023-02-01T11:36:58;11.60;11.60;9.00
57563;PMS7003;43400;45.926;6.724;2023-02-01T11:39:33;10.20;9.60;8.00
57563;PMS7003;43400;45.926;6.724;2023-02-01T11:42:13;11.00;11.00;9.00
57563;PMS7003;43400;45.926;6.724;2023-02-01T11:45:09;10.40;10.40;9.00
57563;PMS7003;43400;45.926;6.724;2023-02-01T11:48:40;11.60;11.60;9.20
57563;PMS7003;43400;45.926;6.724;2023-02-01T11:51:28;12.60;11.80;9.80
57563;PMS7003;43400;45.926;6.724;2023-02-01T12:14:31;12.60;11.20;9.60
57563;PMS7003;43400;45.926;6.724;2023-02-01T12:21:06;11.20;11.00;8.40
57563;PMS7003;43400;45.926;6.724;2023-02-01T12:30:23;13.40;13.00;10.80
57563;PMS7003;43400;45.926;6.724;2023-02-01T12:41:48;13.00;12.25;11.00
57563;PMS7003;43400;45.926;6.724;2023-02-01T12:47:29;11.00;11.00;9.40
57563;PMS7003;43400;45.926;6.724;2023-02-01T12:50:20;17.00;15.75;11.25
57563;PMS7003;43400;45.926;6.724;2023-02-01T12:56:07;17.20;17.00;14.20
57563;PMS7003;43400;45.926;6.724;2023-02-01T12:58:45;17.20;17.20;12.60
57563;PMS7003;43400;45.926;6.724;2023-02-01T13:04:36;14.00;13.00;11.00
57563;PMS7003;43400;45.926;6.724;2023-02-01T13:07:37;20.25;20.25;13.75
57563;PMS7003;43400;45.926;6.724;2023-02-01T13:10:27;13.75;13.75;11.00
57563;PMS7003;43400;45.926;6.724;2023-02-01T13:13:32;15.75;15.75;12.75
57563;PMS7003;43400;45.926;6.724;2023-02-01T13:19:00;15.20;14.20;11.40
57563;PMS7003;43400;45.926;6.724;2023-02-01T13:21:43;13.20;13.20;11.00
57563;PMS7003;43400;45.926;6.724;2023-02-01T13:24:39;15.00;15.00;12.00
57563;PMS7003;43400;45.926;6.724;2023-02-01T13:27:16;15.80;14.80;11.60
57563;PMS7003;43400;45.926;6.724;2023-02-01T13:29:51;16.80;16.00;11.60
57563;PMS7003;43400;45.926;6.724;2023-02-01T13:41:17;13.50;13.50;10.00
57563;PMS7003;43400;45.926;6.724;2023-02-01T13:44:01;12.75;12.75;10.00
57563;PMS7003;43400;45.926;6.724;2023-02-01T13:46:44;12.00;12.00;11.00
57563;PMS7003;43400;45.926;6.724;2023-02-01T13:49:20;12.33;11.67;9.00
57563;PMS7003;43400;45.926;6.724;2023-02-01T13:51:55;14.50;12.75;9.75
57563;PMS7003;43400;45.926;6.724;2023-02-01T13:54:29;11.75;11.75;9.75
57563;PMS7003;43400;45.926;6.724;2023-02-01T13:57:15;13.00;12.25;9.75
57563;PMS7003;43400;45.926;6.724;2023-02-01T14:00:25;11.75;11.75;10.00
57563;PMS7003;43400;45.926;6.724;2023-02-01T14:26:41;12.00;12.00;9.00
57563;PMS7003;43400;45.926;6.724;2023-02-01T14:29:24;12.60;12.00;10.00
57563;PMS7003;43400;45.926;6.724;2023-02-01T14:34:55;9.00;8.40;7.00
57563;PMS7003;43400;45.926;6.724;2023-02-01T14:37:31;11.00;11.00;10.00
57563;PMS7003;43400;45.926;6.724;2023-02-01T14:42:48;9.75;9.50;7.00
57563;PMS7003;43400;45.926;6.724;2023-02-01T14:47:53;7.67;7.00;6.33
57563;PMS7003;43400;45.926;6.724;2023-02-01T14:50:48;10.80;10.00;8.00
57563;PMS7003;43400;45.926;6.724;2023-02-01T14:53:32;10.50;10.50;8.00
57563;PMS7003;43400;45.926;6.724;2023-02-01T14:58:40;11.75;11.25;9.00
57563;PMS7003;43400;45.926;6.724;2023-02-01T15:06:45;10.80;10.80;8.80
57563;PMS7003;43400;45.926;6.724;2023-02-01T15:14:37;8.00;8.00;6.00
57563;PMS7003;43400;45.926;6.724;2023-02-01T15:17:27;9.20;9.00;7.80
57563;PMS7003;43400;45.926;6.724;2023-02-01T15:20:01;11.60;11.20;8.20
57563;PMS7003;43400;45.926;6.724;2023-02-01T15:25:34;8.25;8.25;6.75
57563;PMS7003;43400;45.926;6.724;2023-02-01T15:28:14;12.00;12.00;9.50
57563;PMS7003;43400;45.926;6.724;2023-02-01T15:33:32;11.00;11.00;8.00
57563;PMS7003;43400;45.926;6.724;2023-02-01T15:36:11;7.00;7.00;6.00
57563;PMS7003;43400;45.926;6.724;2023-02-01T15:38:48;11.60;11.20;7.20
57563;PMS7003;43400;45.926;6.724;2023-02-01T15:41:48;13.00;11.00;7.00
57563;PMS7003;43400;45.926;6.724;2023-02-01T15:47:07;9.00;9.00;7.00
57563;PMS7003;43400;45.926;6.724;2023-02-01T15:49:50;10.20;7.00;5.00
57563;PMS7003;43400;45.926;6.724;2023-02-01T15:55:19;9.00;8.67;8.00
57563;PMS7003;43400;45.926;6.724;2023-02-01T15:57:54;10.00;10.00;9.00
57563;PMS7003;43400;45.926;6.724;2023-02-01T16:00:30;10.80;10.80;8.80
57563;PMS7003;43400;45.926;6.724;2023-02-01T16:11:39;9.00;8.75;8.00
57563;PMS7003;43400;45.926;6.724;2023-02-01T16:14:24;24.80;22.00;18.20
57563;PMS7003;43400;45.926;6.724;2023-02-01T16:16:57;18.50;18.50;14.50
57563;PMS7003;43400;45.926;6.724;2023-02-01T16:19:29;15.00;13.00;10.00
57563;PMS7003;43400;45.926;6.724;2023-02-01T16:22:01;14.00;14.00;9.00
57563;PMS7003;43400;45.926;6.724;2023-02-01T16:24:33;13.75;13.75;11.00
57563;PMS7003;43400;45.926;6.724;2023-02-01T16:27:05;23.60;22.80;16.80
57563;PMS7003;43400;45.926;6.724;2023-02-01T16:29:36;24.50;24.50;16.25
57563;PMS7003;43400;45.926;6.724;2023-02-01T16:32:18;25.60;25.00;17.00
57563;PMS7003;43400;45.926;6.724;2023-02-01T16:34:52;9.33;7.67;6.00
57563;PMS7003;43400;45.926;6.724;2023-02-01T16:37:24;6.40;6.40;5.80
57563;PMS7003;43400;45.926;6.724;2023-02-01T16:39:56;9.00;9.00;6.50
57563;PMS7003;43400;45.926;6.724;2023-02-01T16:42:28;12.40;12.40;10.20
57563;PMS7003;43400;45.926;6.724;2023-02-01T16:44:59;12.40;11.60;8.00
57563;PMS7003;43400;45.926;6.724;2023-02-01T16:47:31;9.40;9.40;7.20
57563;PMS7003;43400;45.926;6.724;2023-02-01T16:50:03;28.00;26.00;19.00
57563;PMS7003;43400;45.926;6.724;2023-02-01T16:52:35;29.40;28.60;21.20
57563;PMS7003;43400;45.926;6.724;2023-02-01T16:55:14;16.00;15.00;12.40
57563;PMS7003;43400;45.926;6.724;2023-02-01T16:57:47;9.00;9.00;7.00
57563;PMS7003;43400;45.926;6.724;2023-02-01T17:00:19;10.50;10.50;7.00
57563;PMS7003;43400;45.926;6.724;2023-02-01T17:02:51;12.25;12.25;9.00
57563;PMS7003;43400;45.926;6.724;2023-02-01T17:05:23;14.80;14.40;11.00
57563;PMS7003;43400;45.926;6.724;2023-02-01T17:07:56;17.60;17.20;13.20
57563;PMS7003;43400;45.926;6.724;2023-02-01T17:10:32;49.50;44.75;30.25
57563;PMS7003;43400;45.926;6.724;2023-02-01T17:13:04;31.25;31.25;22.75
57563;PMS7003;43400;45.926;6.724;2023-02-01T17:15:39;19.00;18.20;13.80
57563;PMS7003;43400;45.926;6.724;2023-02-01T17:18:13;12.75;11.50;8.00
57563;PMS7003;43400;45.926;6.724;2023-02-01T17:20:46;7.00;7.00;7.00
57563;PMS7003;43400;45.926;6.724;2023-02-01T17:23:19;30.00;29.00;21.50
57563;PMS7003;43400;45.926;6.724;2023-02-01T17:25:51;31.50;31.25;21.25
57563;PMS7003;43400;45.926;6.724;2023-02-01T17:28:23;37.40;36.80;26.00
57563;PMS7003;43400;45.926;6.724;2023-02-01T17:30:55;22.80;22.00;14.60
57563;PMS7003;43400;45.926;6.724;2023-02-01T17:33:29;41.25;39.75;26.00
57563;PMS7003;43400;45.926;6.724;2023-02-01T17:36:05;75.00;60.50;38.00
57563;PMS7003;43400;45.926;6.724;2023-02-01T17:38:41;49.00;42.20;27.00
57563;PMS7003;43400;45.926;6.724;2023-02-01T17:41:13;34.75;32.50;21.75
57563;PMS7003;43400;45.926;6.724;2023-02-01T17:43:45;31.00;29.75;17.00
57563;PMS7003;43400;45.926;6.724;2023-02-01T17:46:18;24.50;23.00;16.00
57563;PMS7003;43400;45.926;6.724;2023-02-01T17:48:50;13.00;13.00;10.00
57563;PMS7003;43400;45.926;6.724;2023-02-01T17:51:22;11.33;11.33;8.00
57563;PMS7003;43400;45.926;6.724;2023-02-01T17:53:56;26.20;25.40;20.40
57563;PMS7003;43400;45.926;6.724;2023-02-01T17:56:28;22.20;21.20;14.80
57563;PMS7003;43400;45.926;6.724;2023-02-01T17:58:59;20.75;20.25;16.25